createdAt,value
2022-07-25T00:00:56.764Z,4.28
2022-07-25T00:03:23.161Z,4.50
2022-07-25T00:05:49.608Z,5.00
2022-07-25T00:08:16.134Z,5.88
2022-07-25T00:10:42.500Z,5.72
2022-07-25T00:13:08.925Z,6.03
2022-07-25T00:15:35.380Z,6.32
2022-07-25T00:18:01.926Z,5.78
2022-07-25T00:20:28.299Z,5.90
2022-07-25T00:22:54.679Z,6.03
2022-07-25T00:25:23.653Z,6.07
2022-07-25T00:27:50.038Z,6.40
2022-07-25T00:30:16.362Z,7.13
2022-07-25T00:32:42.775Z,6.38
2022-07-25T00:35:09.262Z,6.60
2022-07-25T00:37:35.652Z,6.28
2022-07-25T00:40:02.084Z,6.40
2022-07-25T00:42:28.593Z,6.15
2022-07-25T00:44:54.988Z,6.13
2022-07-25T00:47:21.373Z,6.25
2022-07-25T00:49:47.783Z,6.45
2022-07-25T00:52:14.464Z,6.60
2022-07-25T00:54:41.036Z,6.82
2022-07-25T00:57:07.531Z,6.53
2022-07-25T00:59:33.914Z,6.80
2022-07-25T01:02:00.425Z,6.65
2022-07-25T01:04:30.452Z,6.47
2022-07-25T01:06:56.904Z,6.95
2022-07-25T01:09:23.392Z,6.97
2022-07-25T01:11:49.811Z,6.68
2022-07-25T01:14:16.175Z,6.63
2022-07-25T01:16:42.559Z,7.15
2022-07-25T01:19:08.970Z,6.93
2022-07-25T01:21:40.027Z,6.85
2022-07-25T01:24:06.923Z,6.82
2022-07-25T01:26:33.483Z,6.97
2022-07-25T01:29:00.066Z,6.88
2022-07-25T01:31:26.636Z,7.50
2022-07-25T01:33:53.111Z,6.68
2022-07-25T01:36:19.480Z,7.03
2022-07-25T01:38:45.853Z,7.43
2022-07-25T01:41:12.441Z,6.72
2022-07-25T01:44:09.756Z,7.32
2022-07-25T01:46:36.490Z,7.03
2022-07-25T01:49:04.660Z,6.93
2022-07-25T01:51:31.135Z,6.88
2022-07-25T01:53:57.533Z,6.95
2022-07-25T01:56:23.941Z,6.90
2022-07-25T01:58:50.416Z,6.82
2022-07-25T02:01:16.867Z,7.65
2022-07-25T02:03:45.747Z,6.88
2022-07-25T02:06:12.194Z,6.90
2022-07-25T02:08:38.568Z,6.82
2022-07-25T02:11:05.221Z,7.22
2022-07-25T02:13:31.663Z,6.88
2022-07-25T02:15:58.106Z,6.53
2022-07-25T02:18:24.557Z,7.15
2022-07-25T02:20:51.046Z,6.90
2022-07-25T02:23:17.480Z,6.75
2022-07-25T02:25:43.804Z,7.00
2022-07-25T02:28:10.692Z,6.72
2022-07-25T02:30:37.549Z,6.55
2022-07-25T02:33:04.006Z,6.85
2022-07-25T02:35:30.591Z,7.10
2022-07-25T02:37:56.951Z,7.28
2022-07-25T02:40:23.308Z,7.32
2022-07-25T02:42:49.691Z,7.20
2022-07-25T02:45:16.089Z,7.70
2022-07-25T02:47:42.485Z,6.78
2022-07-25T02:50:09.239Z,7.25
2022-07-25T02:52:41.253Z,7.40
2022-07-25T02:55:09.838Z,6.80
2022-07-25T02:57:36.392Z,6.80
2022-07-25T03:00:03.673Z,6.97
2022-07-25T03:02:30.078Z,8.10
2022-07-25T03:04:56.460Z,8.48
2022-07-25T03:07:22.837Z,7.88
2022-07-25T03:09:49.288Z,7.60
2022-07-25T03:12:15.697Z,7.60
2022-07-25T03:14:42.132Z,6.72
2022-07-25T03:17:08.610Z,7.47
2022-07-25T03:19:35.061Z,7.32
2022-07-25T03:22:01.420Z,7.15
2022-07-25T03:24:27.788Z,7.80
2022-07-25T03:26:55.084Z,8.63
2022-07-25T03:29:21.485Z,8.18
2022-07-25T03:31:47.876Z,7.72
2022-07-25T03:34:14.301Z,7.80
2022-07-25T03:36:40.694Z,7.70
2022-07-25T03:39:07.064Z,7.75
2022-07-25T03:41:33.502Z,7.63
2022-07-25T03:43:59.866Z,7.82
2022-07-25T03:46:26.297Z,8.00
2022-07-25T03:48:52.823Z,8.18
2022-07-25T03:51:19.209Z,8.60
2022-07-25T03:54:04.315Z,8.93
2022-07-25T03:56:31.954Z,7.90
2022-07-25T03:58:58.410Z,8.23
2022-07-25T04:01:24.949Z,8.13
2022-07-25T04:03:53.276Z,8.07
2022-07-25T04:06:19.742Z,7.97
2022-07-25T04:08:46.354Z,7.90
2022-07-25T04:11:12.721Z,7.97
2022-07-25T04:13:39.113Z,8.02
2022-07-25T04:16:05.689Z,8.15
2022-07-25T04:18:32.262Z,7.97
2022-07-25T04:21:00.892Z,7.88
2022-07-25T04:23:28.617Z,7.70
2022-07-25T04:25:55.571Z,7.93
2022-07-25T04:28:22.013Z,7.70
2022-07-25T04:30:48.618Z,7.50
2022-07-25T04:33:15.504Z,8.13
2022-07-25T04:35:41.893Z,8.35
2022-07-25T04:38:12.017Z,7.85
2022-07-25T04:40:39.051Z,8.05
2022-07-25T04:43:05.622Z,7.13
2022-07-25T04:45:32.429Z,7.80
2022-07-25T04:47:58.976Z,7.70
2022-07-25T04:50:25.381Z,7.20
2022-07-25T04:52:51.834Z,7.75
2022-07-25T04:55:18.368Z,7.65
2022-07-25T04:57:44.870Z,7.80
2022-07-25T05:00:11.669Z,7.28
2022-07-25T05:02:38.168Z,7.63
2022-07-25T05:05:05.402Z,7.53
2022-07-25T05:07:32.010Z,7.65
2022-07-25T05:09:58.422Z,7.30
2022-07-25T05:12:24.764Z,7.63
2022-07-25T05:14:51.131Z,7.68
2022-07-25T05:17:17.647Z,6.82
2022-07-25T05:19:44.026Z,7.45
2022-07-25T05:22:10.360Z,7.13
2022-07-25T05:24:37.150Z,6.65
2022-07-25T05:27:04.329Z,8.02
2022-07-25T05:29:31.347Z,7.40
2022-07-25T05:31:58.276Z,8.80
2022-07-25T05:34:24.818Z,7.20
2022-07-25T05:36:51.158Z,6.95
2022-07-25T05:39:17.531Z,7.22
2022-07-25T05:41:44.110Z,6.88
2022-07-25T05:44:10.770Z,7.82
2022-07-25T05:46:37.291Z,7.63
2022-07-25T05:49:03.766Z,7.38
2022-07-25T05:51:30.239Z,6.85
2022-07-25T05:53:56.580Z,7.35
2022-07-25T05:56:23.172Z,7.20
2022-07-25T05:58:49.592Z,6.78
2022-07-25T06:01:16.115Z,7.03
2022-07-25T06:03:42.536Z,6.72
2022-07-25T06:06:09.108Z,6.32
2022-07-25T06:08:35.877Z,6.85
2022-07-25T06:11:07.454Z,6.68
2022-07-25T06:13:34.750Z,6.57
2022-07-25T06:16:01.440Z,6.75
2022-07-25T06:18:28.142Z,6.55
2022-07-25T06:20:54.488Z,6.28
2022-07-25T06:23:21.082Z,6.45
2022-07-25T06:25:50.315Z,6.03
2022-07-25T06:28:18.314Z,6.03
2022-07-25T06:30:45.180Z,5.88
2022-07-25T06:33:11.813Z,5.97
2022-07-25T06:35:38.407Z,6.57
2022-07-25T06:38:04.890Z,6.65
2022-07-25T06:40:31.516Z,6.28
2022-07-25T06:42:57.939Z,6.05
2022-07-25T06:45:25.387Z,5.85
2022-07-25T06:47:51.922Z,6.18
2022-07-25T06:50:18.811Z,5.82
2022-07-25T06:52:47.872Z,6.28
2022-07-25T06:55:15.261Z,5.70
2022-07-25T06:57:42.514Z,6.25
2022-07-25T07:00:10.567Z,6.03
2022-07-25T07:02:56.223Z,5.55
2022-07-25T07:05:23.742Z,5.72
2022-07-25T07:07:50.106Z,5.85
2022-07-25T07:10:18.060Z,5.97
2022-07-25T07:12:44.539Z,5.65
2022-07-25T07:15:11.594Z,6.18
2022-07-25T07:17:38.068Z,5.45
2022-07-25T07:20:05.232Z,5.90
2022-07-25T07:22:31.697Z,5.55
2022-07-25T07:24:58.921Z,5.85
2022-07-25T07:27:25.348Z,5.90
2022-07-25T07:29:51.720Z,5.20
2022-07-25T07:32:18.226Z,5.50
2022-07-25T07:34:44.622Z,4.88
2022-07-25T07:37:11.098Z,5.70
2022-07-25T07:39:37.508Z,5.57
2022-07-25T07:42:03.987Z,5.40
2022-07-25T07:44:30.398Z,5.18
2022-07-25T07:46:56.782Z,5.20
2022-07-25T07:49:23.417Z,5.30
2022-07-25T07:51:49.808Z,5.18
2022-07-25T07:54:34.672Z,5.00
2022-07-25T07:57:01.077Z,5.22
2022-07-25T07:59:27.404Z,5.13
2022-07-25T08:01:53.898Z,5.30
2022-07-25T08:04:20.338Z,5.38
2022-07-25T08:06:46.698Z,5.22
2022-07-25T08:09:13.054Z,5.43
2022-07-25T08:11:39.787Z,5.07
2022-07-25T08:14:07.411Z,5.20
2022-07-25T08:16:34.198Z,5.38
2022-07-25T08:19:00.690Z,4.93
2022-07-25T08:21:27.108Z,5.78
2022-07-25T08:23:53.447Z,5.38
2022-07-25T08:26:19.902Z,5.18
2022-07-25T08:28:46.584Z,5.35
2022-07-25T08:31:13.646Z,5.38
2022-07-25T08:33:42.901Z,5.30
2022-07-25T08:36:10.942Z,5.10
2022-07-25T08:38:37.351Z,5.13
2022-07-25T08:41:04.051Z,5.20
2022-07-25T08:43:33.142Z,4.88
2022-07-25T08:46:00.318Z,4.90
2022-07-25T08:48:26.991Z,5.57
2022-07-25T08:50:54.544Z,5.57
2022-07-25T08:53:36.875Z,5.55
2022-07-25T08:56:11.178Z,5.97
2022-07-25T08:58:40.043Z,5.10
2022-07-25T09:01:07.083Z,4.75
2022-07-25T09:03:33.597Z,5.15
2022-07-25T09:06:00.672Z,4.97
2022-07-25T09:08:27.041Z,5.05
2022-07-25T09:10:53.625Z,5.30
2022-07-25T09:13:22.100Z,5.20
2022-07-25T09:15:50.072Z,5.60
2022-07-25T09:18:17.567Z,5.20
2022-07-25T09:20:45.040Z,5.40
2022-07-25T09:23:13.075Z,4.95
2022-07-25T09:25:39.764Z,5.18
2022-07-25T09:28:10.089Z,5.82
2022-07-25T09:30:36.484Z,4.35
2022-07-25T09:33:02.841Z,5.15
2022-07-25T09:35:33.621Z,4.93
2022-07-25T09:38:14.227Z,5.00
2022-07-25T09:40:41.647Z,4.88
2022-07-25T09:43:08.439Z,4.80
2022-07-25T09:45:34.890Z,4.63
2022-07-25T09:48:02.312Z,5.00
2022-07-25T09:50:29.567Z,4.82
2022-07-25T09:52:57.126Z,4.85
2022-07-25T09:55:23.790Z,4.90
2022-07-25T09:57:50.736Z,4.50
2022-07-25T10:00:23.488Z,4.65
2022-07-25T10:02:53.106Z,4.70
2022-07-25T10:05:19.517Z,4.70
2022-07-25T10:07:47.094Z,4.55
2022-07-25T10:10:28.825Z,4.97
2022-07-25T10:12:59.925Z,4.85
2022-07-25T10:15:26.384Z,4.70
2022-07-25T10:18:02.194Z,4.82
2022-07-25T10:20:28.799Z,4.75
2022-07-25T10:22:57.158Z,4.68
2022-07-25T10:25:24.077Z,4.75
2022-07-25T10:27:52.976Z,4.30
2022-07-25T10:30:20.876Z,4.53
2022-07-25T10:32:51.513Z,4.40
2022-07-25T10:35:17.955Z,4.38
2022-07-25T10:37:49.005Z,4.47
2022-07-25T10:40:25.276Z,4.22
2022-07-25T10:42:56.095Z,4.47
2022-07-25T10:45:25.999Z,5.05
2022-07-25T10:47:55.947Z,4.45
2022-07-25T10:50:40.383Z,4.70
2022-07-25T10:53:09.872Z,4.70
2022-07-25T10:55:36.888Z,4.40
2022-07-25T10:58:21.633Z,4.88
2022-07-25T11:00:48.100Z,4.43
2022-07-25T11:03:18.364Z,4.80
2022-07-25T11:05:46.567Z,4.72
2022-07-25T11:08:21.777Z,4.70
2022-07-25T11:10:53.149Z,4.72
2022-07-25T11:13:19.577Z,4.60
2022-07-25T11:15:46.713Z,5.15
2022-07-25T11:18:13.110Z,4.90
2022-07-25T11:20:39.627Z,5.50
2022-07-25T11:23:06.688Z,4.60
2022-07-25T11:25:33.043Z,4.70
2022-07-25T11:28:00.297Z,4.72
2022-07-25T11:30:30.818Z,4.93
2022-07-25T11:32:58.140Z,5.00
2022-07-25T11:35:31.765Z,4.60
2022-07-25T11:38:01.681Z,4.50
2022-07-25T11:40:28.493Z,4.65
2022-07-25T11:42:59.331Z,4.60
2022-07-25T11:45:27.019Z,4.65
2022-07-25T11:48:06.737Z,4.90
2022-07-25T11:50:33.962Z,4.75
2022-07-25T11:53:04.362Z,4.57
2022-07-25T11:55:32.619Z,4.55
2022-07-25T11:58:03.195Z,4.50
2022-07-25T12:00:29.831Z,4.65
2022-07-25T12:03:06.097Z,4.32
2022-07-25T12:05:32.912Z,4.88
2022-07-25T12:08:08.103Z,4.45
2022-07-25T12:10:35.427Z,4.65
2022-07-25T12:13:04.089Z,4.90
2022-07-25T12:15:32.153Z,5.60
2022-07-25T12:17:58.970Z,4.63
2022-07-25T12:20:26.980Z,4.72
2022-07-25T12:22:54.779Z,4.65
2022-07-25T12:25:21.238Z,4.90
2022-07-25T12:27:48.116Z,5.05
2022-07-25T12:30:15.018Z,4.97
2022-07-25T12:32:41.737Z,4.20
2022-07-25T12:35:09.399Z,4.55
2022-07-25T12:37:35.879Z,4.93
2022-07-25T12:40:02.308Z,4.80
2022-07-25T12:42:28.910Z,4.60
2022-07-25T12:44:55.905Z,4.90
2022-07-25T12:47:22.851Z,4.88
2022-07-25T12:49:49.229Z,4.40
2022-07-25T12:52:15.624Z,4.60
2022-07-25T12:54:42.184Z,4.55
2022-07-25T12:57:09.944Z,4.60
2022-07-25T12:59:36.306Z,4.40
2022-07-25T13:02:02.847Z,4.10
2022-07-25T13:04:29.673Z,4.07
2022-07-25T13:06:56.559Z,4.28
2022-07-25T13:09:23.093Z,4.43
2022-07-25T13:11:49.495Z,4.63
2022-07-25T13:14:16.231Z,4.25
2022-07-25T13:16:43.381Z,4.25
2022-07-25T13:19:10.240Z,4.50
2022-07-25T13:21:37.452Z,4.10
2022-07-25T13:24:04.188Z,4.47
2022-07-25T13:26:31.028Z,4.45
2022-07-25T13:29:00.067Z,4.50
2022-07-25T13:31:26.795Z,4.28
2022-07-25T13:33:53.214Z,3.88
2022-07-25T13:36:19.764Z,4.40
2022-07-25T13:38:46.840Z,4.90
2022-07-25T13:41:13.862Z,4.80
2022-07-25T13:43:42.926Z,4.82
2022-07-25T13:46:09.800Z,4.68
2022-07-25T13:48:37.044Z,4.68
2022-07-25T13:51:03.689Z,4.50
2022-07-25T13:53:30.773Z,4.50
2022-07-25T13:55:58.276Z,5.50
2022-07-25T13:58:25.035Z,4.70
2022-07-25T14:00:51.772Z,4.70
2022-07-25T14:03:18.216Z,5.10
2022-07-25T14:05:44.569Z,4.90
2022-07-25T14:08:10.974Z,4.72
2022-07-25T14:10:37.385Z,4.68
2022-07-25T14:13:03.921Z,4.80
2022-07-25T14:15:30.322Z,4.55
2022-07-25T14:17:57.162Z,4.70
2022-07-25T14:20:23.628Z,4.68
2022-07-25T14:22:50.060Z,4.35
2022-07-25T14:25:16.477Z,4.35
2022-07-25T14:27:42.876Z,4.18
2022-07-25T14:30:09.674Z,4.35
2022-07-25T14:32:36.536Z,4.15
2022-07-25T14:35:03.449Z,4.20
2022-07-25T14:37:31.431Z,4.32
2022-07-25T14:40:01.099Z,4.07
2022-07-25T14:42:28.321Z,4.28
2022-07-25T14:44:54.820Z,4.13
2022-07-25T14:47:26.778Z,3.92
2022-07-25T14:49:54.060Z,4.65
2022-07-25T14:52:20.465Z,4.00
2022-07-25T14:54:47.032Z,4.30
2022-07-25T14:57:13.558Z,4.25
2022-07-25T14:59:39.908Z,4.00
2022-07-25T15:02:06.368Z,4.07
2022-07-25T15:04:32.996Z,4.72
2022-07-25T15:06:59.912Z,4.40
2022-07-25T15:09:26.304Z,4.07
2022-07-25T15:11:52.651Z,4.70
2022-07-25T15:14:19.243Z,4.22
2022-07-25T15:16:45.682Z,3.92
2022-07-25T15:19:17.124Z,4.32
2022-07-25T15:21:44.196Z,4.53
2022-07-25T15:24:10.547Z,4.40
2022-07-25T15:26:36.982Z,4.03
2022-07-25T15:29:06.093Z,4.20
2022-07-25T15:31:32.922Z,4.50
2022-07-25T15:33:59.356Z,4.28
2022-07-25T15:36:29.276Z,4.07
2022-07-25T15:38:56.151Z,3.78
2022-07-25T15:41:22.485Z,3.88
2022-07-25T15:43:48.843Z,4.05
2022-07-25T15:46:16.300Z,4.00
2022-07-25T15:48:44.417Z,4.00
2022-07-25T15:51:10.922Z,4.15
2022-07-25T15:53:37.352Z,4.40
2022-07-25T15:56:04.446Z,4.68
2022-07-25T15:58:30.897Z,4.57
2022-07-25T16:00:57.375Z,4.82
2022-07-25T16:03:24.109Z,4.63
2022-07-25T16:05:50.591Z,4.75
2022-07-25T16:08:17.076Z,4.63
2022-07-25T16:10:43.549Z,4.32
2022-07-25T16:13:10.105Z,4.38
2022-07-25T16:15:36.504Z,4.82
2022-07-25T16:18:03.362Z,4.70
2022-07-25T16:20:31.686Z,4.60
2022-07-25T16:22:59.107Z,4.53
2022-07-25T16:25:26.417Z,5.10
2022-07-25T16:27:53.317Z,5.10
2022-07-25T16:30:20.299Z,4.57
2022-07-25T16:32:46.942Z,5.00
2022-07-25T16:35:15.937Z,4.93
2022-07-25T16:37:42.633Z,5.20
2022-07-25T16:40:09.721Z,4.95
2022-07-25T16:42:36.517Z,5.32
2022-07-25T16:45:02.952Z,5.30
2022-07-25T16:47:29.368Z,5.22
2022-07-25T16:49:55.957Z,4.90
2022-07-25T16:52:22.869Z,5.57
2022-07-25T16:54:49.674Z,6.50
2022-07-25T16:57:16.080Z,4.72
2022-07-25T16:59:42.640Z,4.53
2022-07-25T17:02:09.129Z,12.85
2022-07-25T17:04:35.965Z,5.78
2022-07-25T17:07:02.494Z,5.03
2022-07-25T17:09:28.978Z,5.50
2022-07-25T17:11:55.324Z,4.80
2022-07-25T17:14:24.044Z,5.10
2022-07-25T17:16:54.212Z,5.32
2022-07-25T17:19:20.602Z,5.28
2022-07-25T17:21:46.997Z,5.13
2022-07-25T17:24:13.855Z,5.88
2022-07-25T17:26:40.296Z,5.60
2022-07-25T17:29:08.169Z,6.30
2022-07-25T17:31:35.048Z,5.78
2022-07-25T17:34:01.774Z,5.93
2022-07-25T17:36:28.203Z,5.82
2022-07-25T17:38:54.631Z,6.03
2022-07-25T17:41:20.966Z,6.13
2022-07-25T17:43:47.605Z,5.85
2022-07-25T17:46:14.103Z,6.30
2022-07-25T17:48:41.266Z,6.15
2022-07-25T17:51:07.828Z,7.05
2022-07-25T17:53:34.193Z,6.13
2022-07-25T17:56:01.657Z,6.30
2022-07-25T17:58:28.138Z,6.40
2022-07-25T18:00:59.555Z,6.53
2022-07-25T18:03:27.629Z,6.47
2022-07-25T18:05:55.306Z,6.63
2022-07-25T18:08:22.087Z,6.10
2022-07-25T18:10:49.907Z,6.55
2022-07-25T18:13:17.789Z,6.82
2022-07-25T18:15:44.900Z,6.35
2022-07-25T18:18:12.831Z,5.88
2022-07-25T18:20:43.878Z,6.32
2022-07-25T18:23:10.379Z,6.13
2022-07-25T18:25:36.940Z,6.10
2022-07-25T18:28:03.363Z,6.07
2022-07-25T18:30:29.945Z,5.95
2022-07-25T18:32:56.641Z,6.28
2022-07-25T18:35:23.000Z,6.20
2022-07-25T18:37:49.691Z,6.20
2022-07-25T18:40:16.528Z,8.63
2022-07-25T18:42:42.898Z,6.28
2022-07-25T18:45:10.288Z,6.20
2022-07-25T18:47:36.686Z,6.10
2022-07-25T18:50:05.365Z,5.82
2022-07-25T18:52:35.058Z,6.10
2022-07-25T18:55:02.202Z,6.13
2022-07-25T18:57:31.568Z,6.22
2022-07-25T19:00:02.446Z,5.80
2022-07-25T19:02:29.656Z,6.25
2022-07-25T19:04:56.085Z,6.10
2022-07-25T19:07:22.541Z,7.65
2022-07-25T19:09:49.152Z,7.95
2022-07-25T19:12:15.521Z,7.60
2022-07-25T19:14:41.904Z,8.10
2022-07-25T19:17:08.364Z,8.05
2022-07-25T19:19:34.774Z,8.43
2022-07-25T19:22:01.293Z,8.98
2022-07-25T19:24:27.664Z,9.40
2022-07-25T19:26:54.119Z,9.00
2022-07-25T19:29:20.980Z,8.80
2022-07-25T19:31:47.440Z,9.45
2022-07-25T19:34:13.899Z,9.02
2022-07-25T19:36:40.278Z,9.23
2022-07-25T19:39:06.787Z,8.55
2022-07-25T19:41:33.373Z,8.48
2022-07-25T19:43:59.780Z,8.73
2022-07-25T19:46:29.655Z,9.40
2022-07-25T19:48:56.383Z,9.35
2022-07-25T19:51:22.771Z,9.65
2022-07-25T19:53:49.135Z,9.48
2022-07-25T19:56:15.516Z,9.00
2022-07-25T19:58:43.459Z,9.18
2022-07-25T20:01:10.118Z,9.05
2022-07-25T20:03:36.558Z,7.88
2022-07-25T20:06:07.808Z,7.90
2022-07-25T20:08:34.906Z,9.57
2022-07-25T20:11:01.567Z,8.85
2022-07-25T20:13:29.339Z,9.07
2022-07-25T20:15:55.673Z,9.15
2022-07-25T20:18:22.119Z,9.10
2022-07-25T20:20:48.528Z,8.45
2022-07-25T20:23:14.893Z,8.95
2022-07-25T20:25:41.348Z,8.60
2022-07-25T20:28:07.708Z,8.30
2022-07-25T20:30:35.064Z,8.63
2022-07-25T20:33:08.180Z,9.30
2022-07-25T20:35:35.975Z,7.80
2022-07-25T20:38:02.342Z,7.68
2022-07-25T20:40:29.232Z,8.15
2022-07-25T20:42:56.208Z,7.80
2022-07-25T20:45:22.858Z,7.60
2022-07-25T20:47:49.299Z,7.53
2022-07-25T20:50:15.688Z,7.78
2022-07-25T20:52:42.334Z,8.00
2022-07-25T20:55:08.995Z,7.22
2022-07-25T20:57:35.425Z,8.00
2022-07-25T21:00:02.229Z,7.60
2022-07-25T21:02:28.637Z,7.65
2022-07-25T21:04:55.109Z,7.97
2022-07-25T21:07:21.496Z,7.75
2022-07-25T21:09:47.896Z,8.13
2022-07-25T21:12:14.319Z,7.57
2022-07-25T21:14:40.682Z,7.90
2022-07-25T21:17:08.004Z,7.40
2022-07-25T21:19:34.466Z,8.02
2022-07-25T21:22:01.792Z,7.53
2022-07-25T21:24:28.295Z,7.90
2022-07-25T21:26:54.650Z,7.85
2022-07-25T21:29:21.066Z,7.90
2022-07-25T21:31:47.879Z,8.70
2022-07-25T21:34:17.034Z,8.43
2022-07-25T21:36:43.547Z,7.00
2022-07-25T21:39:10.306Z,7.35
2022-07-25T21:41:37.059Z,7.60
2022-07-25T21:44:03.558Z,7.15
2022-07-25T21:46:30.066Z,7.28
2022-07-25T21:49:15.270Z,7.15
2022-07-25T21:51:42.145Z,7.72
2022-07-25T21:54:09.542Z,7.40
2022-07-25T21:56:35.937Z,7.10
2022-07-25T21:59:02.297Z,7.70
2022-07-25T22:01:29.233Z,7.38
2022-07-25T22:03:55.718Z,7.30
2022-07-25T22:06:22.175Z,7.88
2022-07-25T22:08:48.564Z,7.35
2022-07-25T22:11:20.867Z,7.88
2022-07-25T22:14:01.603Z,7.63
2022-07-25T22:16:28.140Z,7.78
2022-07-25T22:18:54.532Z,7.80
2022-07-25T22:21:20.934Z,7.90
2022-07-25T22:23:47.388Z,8.30
2022-07-25T22:26:13.754Z,9.18
2022-07-25T22:28:40.166Z,8.60
2022-07-25T22:31:06.976Z,9.25
2022-07-25T22:33:34.836Z,9.73
2022-07-25T22:36:01.412Z,8.88
2022-07-25T22:38:27.842Z,9.02
2022-07-25T22:40:54.200Z,9.02
2022-07-25T22:43:20.608Z,8.90
2022-07-25T22:45:47.142Z,9.40
2022-07-25T22:48:13.721Z,9.20
2022-07-25T22:50:40.075Z,9.07
2022-07-25T22:53:06.669Z,9.75
2022-07-25T22:55:33.005Z,10.60
2022-07-25T22:57:59.353Z,9.80
2022-07-25T23:00:25.793Z,9.85
2022-07-25T23:02:52.260Z,10.05
2022-07-25T23:05:18.910Z,10.82
2022-07-25T23:07:45.288Z,10.85
2022-07-25T23:10:12.172Z,10.73
2022-07-25T23:12:38.668Z,10.65
2022-07-25T23:15:05.354Z,11.00
2022-07-25T23:17:31.696Z,12.52
2022-07-25T23:19:58.124Z,11.63
2022-07-25T23:22:26.169Z,11.82
2022-07-25T23:24:52.651Z,11.95
2022-07-25T23:27:19.016Z,12.00
2022-07-25T23:29:45.420Z,12.73
2022-07-25T23:32:11.795Z,12.15
2022-07-25T23:34:38.267Z,12.55
2022-07-25T23:37:04.800Z,12.70
2022-07-25T23:39:31.906Z,11.75
2022-07-25T23:41:58.686Z,12.00
2022-07-25T23:44:25.845Z,11.35
2022-07-25T23:46:54.060Z,11.48
2022-07-25T23:49:20.899Z,10.48
2022-07-25T23:51:47.321Z,10.32
2022-07-25T23:54:13.788Z,10.77
2022-07-25T23:56:40.415Z,10.73
2022-07-25T23:59:07.052Z,10.38
